Time;durP1;ratioP1;P1;durP2;ratioP2;P2;SDS_P1;SDS_P2;PMS_P1;PMS_P2;Temp;Humidity;BMP_temperature;BMP_pressure;BME280_temperature;BME280_humidity;BME280_pressure;Samples;Min_cycle;Max_cycle;Signal;HPM_P1;HPM_P2
2021/06/29 00:00:23;;;;;;;46.17;23.65;;;;;;;;;;1429026;41;20446;-80
2021/06/29 00:01:24;;;;;;;44.97;22.73;;;;;;;;;;1430572;41;20425;-80
2021/06/29 00:02:26;;;;;;;45.88;24.02;;;;;;;;;;1437701;41;20416;-80
2021/06/29 00:03:28;;;;;;;54.22;25.80;;;;;;;;;;1437831;41;20435;-80
2021/06/29 00:04:29;;;;;;;51.72;24.67;;;;;;;;;;1428833;41;20459;-80
2021/06/29 00:05:32;;;;;;;50.22;24.35;;;;;;;;;;1429835;41;20549;-80
2021/06/29 00:06:35;;;;;;;60.10;25.83;;;;;;;;;;1433917;41;20465;-80
2021/06/29 00:07:36;;;;;;;51.72;24.42;;;;;;;;;;1433569;41;20568;-80
2021/06/29 00:08:38;;;;;;;50.20;24.55;;;;;;;;;;1429787;41;20434;-79
2021/06/29 00:09:55;;;;;;;47.00;24.63;;;;;;;;;;1426828;41;20788;-80
2021/06/29 00:10:57;;;;;;;47.10;24.23;;;;;;;;;;1434491;41;20940;-80
2021/06/29 00:11:59;;;;;;;53.70;24.15;;;;;;;;;;1438364;41;20446;-80
2021/06/29 00:13:02;;;;;;;55.20;25.13;;;;;;;;;;1438158;41;20849;-79
2021/06/29 00:14:04;;;;;;;63.25;27.23;;;;;;;;;;1438053;41;20824;-80
2021/06/29 00:15:07;;;;;;;57.70;25.40;;;;;;;;;;1438118;41;20534;-80
2021/06/29 00:16:08;;;;;;;59.25;25.83;;;;;;;;;;1436600;41;20554;-80
2021/06/29 00:17:11;;;;;;;53.45;24.58;;;;;;;;;;1437538;41;20427;-80
2021/06/29 00:18:13;;;;;;;59.22;24.48;;;;;;;;;;1437547;41;20551;-80
2021/06/29 00:19:14;;;;;;;57.97;25.70;;;;;;;;;;1428569;41;20423;-81
2021/06/29 00:20:17;;;;;;;55.75;24.63;;;;;;;;;;1426274;41;20764;-80
2021/06/29 00:21:18;;;;;;;63.25;25.02;;;;;;;;;;1433317;41;20435;-80
2021/06/29 00:22:20;;;;;;;58.30;24.92;;;;;;;;;;1433215;41;20475;-80
2021/06/29 00:23:22;;;;;;;54.58;24.60;;;;;;;;;;1433338;41;20489;-80
2021/06/29 00:24:23;;;;;;;56.13;24.25;;;;;;;;;;1437696;41;20558;-80
2021/06/29 00:25:25;;;;;;;55.30;22.15;;;;;;;;;;1437483;41;20661;-80
2021/06/29 00:26:27;;;;;;;55.58;24.08;;;;;;;;;;1437523;41;20438;-80
2021/06/29 00:27:28;;;;;;;54.60;24.33;;;;;;;;;;1437822;41;20453;-80
2021/06/29 00:28:30;;;;;;;62.72;23.67;;;;;;;;;;1437318;41;20539;-80
2021/06/29 00:29:32;;;;;;;58.10;25.63;;;;;;;;;;1433793;41;20448;-80
2021/06/29 00:30:34;;;;;;;49.83;22.77;;;;;;;;;;1433712;41;20424;-80
2021/06/29 00:31:35;;;;;;;58.70;24.50;;;;;;;;;;1433639;41;20459;-79
2021/06/29 00:32:37;;;;;;;59.85;23.15;;;;;;;;;;1437193;41;20510;-79
2021/06/29 00:33:39;;;;;;;61.10;23.15;;;;;;;;;;1433535;41;20425;-79
2021/06/29 00:34:41;;;;;;;52.50;23.55;;;;;;;;;;1433311;41;20437;-79
2021/06/29 00:35:42;;;;;;;53.00;22.60;;;;;;;;;;1433590;41;20584;-79
2021/06/29 00:36:45;;;;;;;66.80;24.50;;;;;;;;;;1433869;41;20425;-79
2021/06/29 00:37:46;;;;;;;62.83;24.67;;;;;;;;;;1433315;41;20470;-79
2021/06/29 00:38:48;;;;;;;71.97;26.70;;;;;;;;;;1433124;41;20664;-79
2021/06/29 00:39:50;;;;;;;63.50;24.48;;;;;;;;;;1428975;41;20482;-79
2021/06/29 00:40:52;;;;;;;58.40;23.42;;;;;;;;;;1429298;41;20450;-79
2021/06/29 00:41:54;;;;;;;72.55;24.60;;;;;;;;;;1428118;41;20434;-80
2021/06/29 00:42:56;;;;;;;64.78;23.83;;;;;;;;;;1429105;41;20505;-79
2021/06/29 00:43:57;;;;;;;52.22;21.48;;;;;;;;;;1432845;41;20512;-80
2021/06/29 00:45:00;;;;;;;49.13;21.50;;;;;;;;;;1433804;41;20456;-80
2021/06/29 00:46:01;;;;;;;49.95;22.38;;;;;;;;;;1433589;41;20417;-79
2021/06/29 00:47:08;;;;;;;60.35;22.00;;;;;;;;;;1433583;41;20436;-79
2021/06/29 00:48:10;;;;;;;53.20;22.23;;;;;;;;;;1433844;41;20436;-79
2021/06/29 00:49:11;;;;;;;53.58;22.13;;;;;;;;;;1433196;41;20420;-79
2021/06/29 00:50:15;;;;;;;55.20;21.92;;;;;;;;;;1433258;41;20490;-80
2021/06/29 00:51:19;;;;;;;56.03;20.67;;;;;;;;;;1429299;41;20567;-79
2021/06/29 00:52:21;;;;;;;56.42;21.88;;;;;;;;;;1429201;41;21051;-79
2021/06/29 00:53:23;;;;;;;50.47;22.23;;;;;;;;;;1432968;41;20836;-79
2021/06/29 00:54:25;;;;;;;60.30;22.60;;;;;;;;;;1436512;41;20427;-79
2021/06/29 00:55:26;;;;;;;59.60;21.48;;;;;;;;;;1433944;41;20517;-79
2021/06/29 00:56:28;;;;;;;55.60;22.48;;;;;;;;;;1429670;41;20515;-79
2021/06/29 00:57:30;;;;;;;55.35;22.13;;;;;;;;;;1435438;41;20818;-79
2021/06/29 00:58:31;;;;;;;60.28;23.17;;;;;;;;;;1437275;41;20450;-79
2021/06/29 00:59:34;;;;;;;57.83;22.60;;;;;;;;;;1437809;41;20439;-79
2021/06/29 01:00:37;;;;;;;57.20;23.38;;;;;;;;;;1438063;41;20548;-79
2021/06/29 01:01:39;;;;;;;67.05;23.08;;;;;;;;;;1434427;41;20456;-79
2021/06/29 01:02:40;;;;;;;67.30;24.13;;;;;;;;;;1434844;41;20445;-79
2021/06/29 01:03:42;;;;;;;58.05;23.23;;;;;;;;;;1441060;41;20474;-79
2021/06/29 01:04:45;;;;;;;60.15;22.80;;;;;;;;;;1442919;41;20442;-79
2021/06/29 01:05:47;;;;;;;57.35;21.80;;;;;;;;;;1443067;41;20443;-79
2021/06/29 01:06:48;;;;;;;61.92;23.23;;;;;;;;;;1440076;41;20551;-79
2021/06/29 01:07:50;;;;;;;62.20;23.35;;;;;;;;;;1441836;41;20511;-78
2021/06/29 01:08:51;;;;;;;64.65;23.65;;;;;;;;;;1443041;41;20435;-78
2021/06/29 01:09:53;;;;;;;58.78;21.92;;;;;;;;;;1443459;41;20450;-78
2021/06/29 01:10:54;;;;;;;58.92;22.27;;;;;;;;;;1439274;41;20523;-79
2021/06/29 01:11:56;;;;;;;51.13;20.50;;;;;;;;;;1429922;41;20468;-79
2021/06/29 01:12:58;;;;;;;54.67;22.20;;;;;;;;;;1430955;41;20450;-80
2021/06/29 01:14:10;;;;;;;52.42;21.15;;;;;;;;;;1439029;41;20419;-79
2021/06/29 01:15:12;;;;;;;56.60;23.25;;;;;;;;;;1438383;41;20968;-79
2021/06/29 01:16:14;;;;;;;57.05;20.98;;;;;;;;;;1438893;41;20468;-79
2021/06/29 01:17:17;;;;;;;51.75;21.73;;;;;;;;;;1438679;41;20441;-79
2021/06/29 01:18:19;;;;;;;57.83;22.10;;;;;;;;;;1438323;41;20465;-79
2021/06/29 01:19:24;;;;;;;53.90;21.65;;;;;;;;;;1437390;41;20904;-79
2021/06/29 01:20:29;;;;;;;53.70;23.13;;;;;;;;;;1438509;41;20427;-79
2021/06/29 01:21:38;;;;;;;58.15;22.25;;;;;;;;;;1438847;41;20438;-79
2021/06/29 01:22:41;;;;;;;55.20;23.40;;;;;;;;;;1440575;41;20422;-79
2021/06/29 01:23:48;;;;;;;60.60;22.50;;;;;;;;;;1440874;41;20703;-78
2021/06/29 01:24:55;;;;;;;53.70;21.85;;;;;;;;;;1441139;41;20423;-79
2021/06/29 01:26:11;;;;;;;56.87;21.40;;;;;;;;;;1441383;41;20403;-78
2021/06/29 01:28:44;;;;;;;48.97;21.55;;;;;;;;;;1439158;41;20504;-79
2021/06/29 01:31:07;;;;;;;56.17;22.98;;;;;;;;;;1435032;41;20531;-79
2021/06/29 01:32:16;;;;;;;59.78;22.38;;;;;;;;;;1434765;41;20429;-80
2021/06/29 01:33:20;;;;;;;55.35;20.92;;;;;;;;;;1434750;41;20462;-79
2021/06/29 01:34:21;;;;;;;60.30;22.08;;;;;;;;;;1430260;41;20997;-79
2021/06/29 01:35:23;;;;;;;57.63;22.55;;;;;;;;;;1426247;41;21168;-79
2021/06/29 01:36:26;;;;;;;58.33;21.42;;;;;;;;;;1430171;41;20479;-79
2021/06/29 01:37:28;;;;;;;59.25;22.20;;;;;;;;;;1434431;41;20482;-80
2021/06/29 01:38:30;;;;;;;50.45;21.27;;;;;;;;;;1430255;41;20492;-79
2021/06/29 01:39:32;;;;;;;51.42;19.40;;;;;;;;;;1430313;41;20760;-80
2021/06/29 01:40:34;;;;;;;46.92;20.77;;;;;;;;;;1436609;41;20435;-80
2021/06/29 01:41:35;;;;;;;53.80;20.58;;;;;;;;;;1438051;41;20577;-80
2021/06/29 01:42:37;;;;;;;47.55;20.70;;;;;;;;;;1437638;41;20441;-80
2021/06/29 01:43:46;;;;;;;52.28;20.77;;;;;;;;;;1437143;41;20564;-80
2021/06/29 01:44:47;;;;;;;53.05;21.15;;;;;;;;;;1433572;41;20473;-80
2021/06/29 01:45:51;;;;;;;52.85;21.25;;;;;;;;;;1430200;41;20461;-80
2021/06/29 01:46:55;;;;;;;60.33;22.05;;;;;;;;;;1430724;41;20429;-80
2021/06/29 01:47:58;;;;;;;47.38;20.88;;;;;;;;;;1429833;41;20470;-80
2021/06/29 01:49:00;;;;;;;42.53;19.90;;;;;;;;;;1433572;41;20409;-80
2021/06/29 01:50:11;;;;;;;44.75;20.25;;;;;;;;;;1429463;41;20798;-80
2021/06/29 01:51:13;;;;;;;45.53;20.40;;;;;;;;;;1433514;41;20516;-80
2021/06/29 01:52:15;;;;;;;53.85;21.85;;;;;;;;;;1433276;41;20911;-80
2021/06/29 01:53:16;;;;;;;56.05;20.88;;;;;;;;;;1433766;41;20508;-80
2021/06/29 01:54:20;;;;;;;45.80;19.02;;;;;;;;;;1429180;41;21076;-80
2021/06/29 01:55:21;;;;;;;53.67;21.08;;;;;;;;;;1430469;41;20571;-80
2021/06/29 01:56:35;;;;;;;49.95;20.73;;;;;;;;;;1436245;41;20451;-80
2021/06/29 01:57:40;;;;;;;50.15;20.30;;;;;;;;;;1434113;41;20513;-80
2021/06/29 01:58:43;;;;;;;47.38;20.48;;;;;;;;;;1433472;41;20468;-79
2021/06/29 01:59:48;;;;;;;53.22;21.35;;;;;;;;;;1429360;41;20478;-80
2021/06/29 02:00:50;;;;;;;48.20;21.00;;;;;;;;;;1429763;41;20877;-80
2021/06/29 02:01:51;;;;;;;53.90;20.73;;;;;;;;;;1437123;41;20615;-79
2021/06/29 02:02:53;;;;;;;40.70;19.70;;;;;;;;;;1433617;41;20547;-79
2021/06/29 02:03:55;;;;;;;50.97;20.88;;;;;;;;;;1429633;41;20411;-80
2021/06/29 02:04:57;;;;;;;48.67;21.35;;;;;;;;;;1433583;41;20492;-80
2021/06/29 02:05:59;;;;;;;56.63;23.65;;;;;;;;;;1433181;41;20438;-80
2021/06/29 02:07:00;;;;;;;52.65;22.40;;;;;;;;;;1433228;41;20436;-80
2021/06/29 02:08:02;;;;;;;64.35;24.65;;;;;;;;;;1433550;41;20483;-80
2021/06/29 02:09:11;;;;;;;71.68;24.75;;;;;;;;;;1429928;41;20607;-79
2021/06/29 02:10:14;;;;;;;64.05;25.20;;;;;;;;;;1434673;41;20482;-79
2021/06/29 02:11:15;;;;;;;58.47;24.63;;;;;;;;;;1437113;41;20715;-80
2021/06/29 02:12:17;;;;;;;60.85;24.75;;;;;;;;;;1438190;41;20415;-80
2021/06/29 02:13:19;;;;;;;66.18;24.38;;;;;;;;;;1437819;41;20874;-80
2021/06/29 02:14:21;;;;;;;72.05;25.60;;;;;;;;;;1437513;41;20434;-80
2021/06/29 02:15:22;;;;;;;48.53;23.03;;;;;;;;;;1437822;41;21335;-80
2021/06/29 02:16:24;;;;;;;56.58;23.75;;;;;;;;;;1429547;41;20510;-79
2021/06/29 02:17:26;;;;;;;58.13;24.55;;;;;;;;;;1425648;41;20842;-80
2021/06/29 02:18:28;;;;;;;58.30;23.67;;;;;;;;;;1425619;41;20441;-80
2021/06/29 02:19:29;;;;;;;54.22;24.88;;;;;;;;;;1429490;41;20523;-80
2021/06/29 02:20:32;;;;;;;53.17;25.38;;;;;;;;;;1429430;41;20474;-80
2021/06/29 02:21:33;;;;;;;56.40;26.90;;;;;;;;;;1428789;41;21231;-80
2021/06/29 02:22:35;;;;;;;64.22;26.67;;;;;;;;;;1433924;41;20570;-79
2021/06/29 02:23:36;;;;;;;72.00;28.27;;;;;;;;;;1433936;41;20478;-80
2021/06/29 02:24:38;;;;;;;64.68;28.00;;;;;;;;;;1429329;41;20555;-79
2021/06/29 02:25:39;;;;;;;64.13;27.98;;;;;;;;;;1431768;41;20513;-80
2021/06/29 02:26:41;;;;;;;68.57;28.48;;;;;;;;;;1426968;41;20568;-80
2021/06/29 02:27:43;;;;;;;69.70;27.98;;;;;;;;;;1429507;41;20427;-79
2021/06/29 02:28:44;;;;;;;71.53;30.35;;;;;;;;;;1433479;41;20433;-80
2021/06/29 02:29:46;;;;;;;68.70;28.80;;;;;;;;;;1437084;41;20416;-80
2021/06/29 02:30:48;;;;;;;72.03;28.90;;;;;;;;;;1437036;41;20423;-80
2021/06/29 02:31:49;;;;;;;71.57;29.17;;;;;;;;;;1429178;41;20438;-80
2021/06/29 02:32:51;;;;;;;74.57;29.02;;;;;;;;;;1429923;41;20434;-79
2021/06/29 02:33:52;;;;;;;73.40;30.20;;;;;;;;;;1437115;41;20411;-80
2021/06/29 02:34:54;;;;;;;69.70;29.30;;;;;;;;;;1437730;41;20962;-80
2021/06/29 02:35:56;;;;;;;68.03;30.00;;;;;;;;;;1437346;41;20493;-80
2021/06/29 02:36:57;;;;;;;64.72;27.88;;;;;;;;;;1437375;41;20520;-79
2021/06/29 02:37:59;;;;;;;60.83;27.63;;;;;;;;;;1437563;41;20446;-80
2021/06/29 02:39:00;;;;;;;59.47;27.55;;;;;;;;;;1438245;41;20435;-80
2021/06/29 02:40:03;;;;;;;67.70;28.83;;;;;;;;;;1437745;41;20446;-79
2021/06/29 02:41:04;;;;;;;66.53;27.77;;;;;;;;;;1434072;41;20518;-80
2021/06/29 02:42:06;;;;;;;73.03;28.45;;;;;;;;;;1425638;41;20528;-81
2021/06/29 02:43:15;;;;;;;64.95;28.33;;;;;;;;;;1425536;41;21123;-80
2021/06/29 02:44:20;;;;;;;63.33;25.77;;;;;;;;;;1430088;41;20674;-79
2021/06/29 02:45:22;;;;;;;63.40;27.48;;;;;;;;;;1438094;41;20454;-80
2021/06/29 02:46:24;;;;;;;57.35;26.50;;;;;;;;;;1436852;41;20855;-79
2021/06/29 02:47:25;;;;;;;66.75;27.63;;;;;;;;;;1438006;41;20466;-79
2021/06/29 02:48:27;;;;;;;58.47;26.13;;;;;;;;;;1437620;41;20427;-79
2021/06/29 02:49:28;;;;;;;61.35;27.42;;;;;;;;;;1436756;41;21315;-79
2021/06/29 02:50:30;;;;;;;55.25;25.75;;;;;;;;;;1437066;41;20468;-79
2021/06/29 02:51:31;;;;;;;61.45;26.20;;;;;;;;;;1433026;41;20459;-79
2021/06/29 02:52:33;;;;;;;60.75;26.48;;;;;;;;;;1433136;41;20798;-80
2021/06/29 02:53:34;;;;;;;58.45;25.15;;;;;;;;;;1437022;41;20514;-79
2021/06/29 02:54:36;;;;;;;59.17;25.95;;;;;;;;;;1433289;41;20792;-79
2021/06/29 02:55:38;;;;;;;61.35;27.88;;;;;;;;;;1436162;41;20548;-81
2021/06/29 02:56:40;;;;;;;63.35;27.02;;;;;;;;;;1433074;41;21110;-80
2021/06/29 02:57:43;;;;;;;53.17;26.13;;;;;;;;;;1429002;41;20427;-79
2021/06/29 02:58:45;;;;;;;55.67;26.73;;;;;;;;;;1430797;41;20548;-80
2021/06/29 02:59:46;;;;;;;58.05;27.20;;;;;;;;;;1433871;41;20476;-79
2021/06/29 03:00:48;;;;;;;53.85;26.27;;;;;;;;;;1434159;41;21078;-79
2021/06/29 03:01:50;;;;;;;53.25;24.90;;;;;;;;;;1436759;41;20524;-79
2021/06/29 03:02:52;;;;;;;51.50;25.40;;;;;;;;;;1437823;41;20707;-79
2021/06/29 03:03:54;;;;;;;57.22;26.05;;;;;;;;;;1437335;41;20931;-79
2021/06/29 03:04:55;;;;;;;48.33;25.17;;;;;;;;;;1437782;41;20579;-79
2021/06/29 03:05:57;;;;;;;50.53;23.45;;;;;;;;;;1437791;41;20407;-80
2021/06/29 03:06:58;;;;;;;49.80;24.48;;;;;;;;;;1437490;41;20979;-79
2021/06/29 03:08:00;;;;;;;47.28;24.02;;;;;;;;;;1430887;41;20447;-79
2021/06/29 03:09:03;;;;;;;51.55;24.60;;;;;;;;;;1429818;41;20820;-79
2021/06/29 03:10:06;;;;;;;38.05;21.63;;;;;;;;;;1433170;41;20547;-79
2021/06/29 03:11:07;;;;;;;43.25;20.48;;;;;;;;;;1433697;41;20451;-79
2021/06/29 03:12:10;;;;;;;41.58;20.48;;;;;;;;;;1432653;41;20833;-79
2021/06/29 03:13:11;;;;;;;35.92;19.23;;;;;;;;;;1433618;41;20465;-79
2021/06/29 03:14:13;;;;;;;39.20;19.75;;;;;;;;;;1429273;41;20702;-79
2021/06/29 03:15:14;;;;;;;32.58;18.73;;;;;;;;;;1429396;41;20415;-80
2021/06/29 03:16:16;;;;;;;25.35;17.20;;;;;;;;;;1432552;41;20480;-80
2021/06/29 03:17:18;;;;;;;26.77;16.73;;;;;;;;;;1433874;41;20525;-79
2021/06/29 03:18:23;;;;;;;34.97;19.00;;;;;;;;;;1433227;41;20421;-80
2021/06/29 03:19:25;;;;;;;29.25;16.60;;;;;;;;;;1433740;41;20490;-79
2021/06/29 03:20:27;;;;;;;30.58;17.23;;;;;;;;;;1433833;41;20492;-79
2021/06/29 03:21:28;;;;;;;33.55;16.73;;;;;;;;;;1429608;41;20491;-79
2021/06/29 03:22:30;;;;;;;31.48;16.40;;;;;;;;;;1428771;41;20446;-80
2021/06/29 03:23:32;;;;;;;30.27;16.55;;;;;;;;;;1429780;41;21800;-80
2021/06/29 03:24:33;;;;;;;30.88;16.63;;;;;;;;;;1429398;41;20547;-80
2021/06/29 03:25:37;;;;;;;32.88;16.83;;;;;;;;;;1426764;41;20464;-79
2021/06/29 03:26:39;;;;;;;27.65;16.33;;;;;;;;;;1422064;41;20482;-80
2021/06/29 03:27:41;;;;;;;32.45;17.60;;;;;;;;;;1428160;41;20418;-80
2021/06/29 03:28:43;;;;;;;24.25;14.90;;;;;;;;;;1425283;41;20546;-79
2021/06/29 03:29:45;;;;;;;24.98;14.63;;;;;;;;;;1426874;41;20950;-80
2021/06/29 03:30:46;;;;;;;23.40;14.73;;;;;;;;;;1433360;41;20492;-80
2021/06/29 03:31:48;;;;;;;24.98;15.30;;;;;;;;;;1429246;41;20519;-79
2021/06/29 03:32:50;;;;;;;23.10;15.15;;;;;;;;;;1429539;41;20446;-79
2021/06/29 03:33:52;;;;;;;27.15;14.93;;;;;;;;;;1429481;41;20476;-79
2021/06/29 03:34:53;;;;;;;24.52;14.63;;;;;;;;;;1429768;41;20547;-80
2021/06/29 03:35:55;;;;;;;27.63;16.25;;;;;;;;;;1433816;41;20558;-80
2021/06/29 03:36:57;;;;;;;23.20;15.97;;;;;;;;;;1437880;41;20566;-79
2021/06/29 03:37:58;;;;;;;26.55;14.98;;;;;;;;;;1437826;41;20537;-79
2021/06/29 03:39:00;;;;;;;24.20;15.23;;;;;;;;;;1437569;41;20960;-79
2021/06/29 03:40:02;;;;;;;29.02;16.27;;;;;;;;;;1437365;41;20438;-80
2021/06/29 03:41:04;;;;;;;23.92;16.25;;;;;;;;;;1433407;41;20444;-79
2021/06/29 03:42:06;;;;;;;31.75;15.98;;;;;;;;;;1433840;41;20953;-80
2021/06/29 03:43:07;;;;;;;24.15;15.25;;;;;;;;;;1434051;41;20449;-80
2021/06/29 03:44:09;;;;;;;23.30;15.35;;;;;;;;;;1435335;41;20515;-79
2021/06/29 03:45:11;;;;;;;24.27;15.75;;;;;;;;;;1438011;41;20436;-79
2021/06/29 03:46:13;;;;;;;27.92;15.93;;;;;;;;;;1434473;41;20523;-79
2021/06/29 03:47:15;;;;;;;23.42;15.30;;;;;;;;;;1433754;41;20421;-79
2021/06/29 03:48:16;;;;;;;20.52;14.93;;;;;;;;;;1435593;41;20432;-80
2021/06/29 03:49:18;;;;;;;24.02;14.95;;;;;;;;;;1432114;41;20418;-79
2021/06/29 03:50:20;;;;;;;21.10;14.93;;;;;;;;;;1432831;41;20499;-79
2021/06/29 03:51:21;;;;;;;27.02;15.85;;;;;;;;;;1435815;41;20615;-79
2021/06/29 03:52:23;;;;;;;25.40;16.75;;;;;;;;;;1435461;41;20562;-79
2021/06/29 03:53:24;;;;;;;29.60;17.48;;;;;;;;;;1435411;41;20497;-80
2021/06/29 03:54:26;;;;;;;27.63;17.17;;;;;;;;;;1438306;41;20464;-78
2021/06/29 03:55:29;;;;;;;27.35;17.35;;;;;;;;;;1430276;41;20513;-79
2021/06/29 03:56:32;;;;;;;26.85;16.83;;;;;;;;;;1426624;41;20477;-79
2021/06/29 03:57:33;;;;;;;24.88;16.38;;;;;;;;;;1427758;41;20859;-79
2021/06/29 03:58:35;;;;;;;25.30;16.27;;;;;;;;;;1423642;41;20445;-79
2021/06/29 03:59:37;;;;;;;28.65;17.98;;;;;;;;;;1425490;41;20454;-78
2021/06/29 04:00:38;;;;;;;27.35;16.92;;;;;;;;;;1429334;41;20428;-78
2021/06/29 04:01:40;;;;;;;26.50;16.65;;;;;;;;;;1436854;41;20434;-77
2021/06/29 04:02:42;;;;;;;25.73;17.08;;;;;;;;;;1437747;41;20445;-80
2021/06/29 04:03:44;;;;;;;28.40;17.52;;;;;;;;;;1437911;41;20437;-78
2021/06/29 04:04:45;;;;;;;27.75;16.58;;;;;;;;;;1434505;41;20961;-80
2021/06/29 04:05:47;;;;;;;24.33;17.63;;;;;;;;;;1434392;41;20449;-79
2021/06/29 04:06:48;;;;;;;23.90;16.55;;;;;;;;;;1433443;41;20924;-79
2021/06/29 04:07:50;;;;;;;28.80;16.98;;;;;;;;;;1431335;41;20509;-79
2021/06/29 04:08:53;;;;;;;27.30;18.20;;;;;;;;;;1429569;41;20548;-79
2021/06/29 04:09:55;;;;;;;25.83;17.15;;;;;;;;;;1433279;41;20433;-80
2021/06/29 04:10:57;;;;;;;20.35;15.90;;;;;;;;;;1437072;41;20475;-79
2021/06/29 04:11:59;;;;;;;27.75;17.10;;;;;;;;;;1436860;41;20440;-79
2021/06/29 04:13:01;;;;;;;24.88;16.73;;;;;;;;;;1429759;41;20434;-79
2021/06/29 04:14:03;;;;;;;24.70;16.40;;;;;;;;;;1432205;41;20412;-80
2021/06/29 04:15:07;;;;;;;25.55;17.05;;;;;;;;;;1433220;41;20440;-79
2021/06/29 04:16:09;;;;;;;26.83;17.63;;;;;;;;;;1437277;41;20491;-79
2021/06/29 04:17:11;;;;;;;28.30;17.08;;;;;;;;;;1433594;41;20566;-79
2021/06/29 04:18:13;;;;;;;32.08;17.58;;;;;;;;;;1433400;41;21134;-79
2021/06/29 04:19:14;;;;;;;27.75;18.88;;;;;;;;;;1433226;41;20904;-80
2021/06/29 04:20:16;;;;;;;31.33;18.73;;;;;;;;;;1436821;41;20482;-80
2021/06/29 04:21:18;;;;;;;27.17;18.13;;;;;;;;;;1437226;41;20524;-79
2021/06/29 04:22:20;;;;;;;33.97;19.25;;;;;;;;;;1429604;41;20434;-80
2021/06/29 04:23:22;;;;;;;30.67;19.10;;;;;;;;;;1432715;41;20504;-79
2021/06/29 04:24:24;;;;;;;33.25;20.10;;;;;;;;;;1433106;41;20521;-80
2021/06/29 04:25:26;;;;;;;29.98;19.85;;;;;;;;;;1433067;41;20520;-80
2021/06/29 04:26:27;;;;;;;39.65;21.27;;;;;;;;;;1432581;41;20530;-80
2021/06/29 04:27:29;;;;;;;34.22;20.20;;;;;;;;;;1432942;41;20835;-80
2021/06/29 04:28:31;;;;;;;36.00;21.70;;;;;;;;;;1432969;41;20440;-80
2021/06/29 04:29:33;;;;;;;36.70;20.88;;;;;;;;;;1437176;41;20420;-80
2021/06/29 04:30:35;;;;;;;36.97;20.77;;;;;;;;;;1436478;41;20548;-80
2021/06/29 04:31:36;;;;;;;37.38;22.15;;;;;;;;;;1433689;41;20513;-79
2021/06/29 04:32:38;;;;;;;39.28;23.73;;;;;;;;;;1437328;41;20422;-79
2021/06/29 04:33:40;;;;;;;44.78;23.20;;;;;;;;;;1429277;41;20549;-80
2021/06/29 04:34:41;;;;;;;41.25;23.65;;;;;;;;;;1429530;41;20505;-79
2021/06/29 04:35:43;;;;;;;48.65;23.60;;;;;;;;;;1434562;41;20428;-79
2021/06/29 04:36:45;;;;;;;48.13;25.23;;;;;;;;;;1434380;41;20521;-79
2021/06/29 04:37:46;;;;;;;42.08;23.45;;;;;;;;;;1434330;41;20535;-80
2021/06/29 04:38:48;;;;;;;49.38;25.77;;;;;;;;;;1430589;41;20548;-80
2021/06/29 04:39:50;;;;;;;48.17;27.13;;;;;;;;;;1433988;41;20429;-80
2021/06/29 04:40:51;;;;;;;57.70;28.38;;;;;;;;;;1436847;41;20423;-79
2021/06/29 04:41:53;;;;;;;57.78;29.48;;;;;;;;;;1433679;41;20895;-79
2021/06/29 04:42:55;;;;;;;56.95;28.92;;;;;;;;;;1429034;41;20823;-80
2021/06/29 04:43:56;;;;;;;56.70;28.13;;;;;;;;;;1429562;41;20574;-80
2021/06/29 04:44:58;;;;;;;57.00;28.40;;;;;;;;;;1429848;41;20474;-80
2021/06/29 04:46:00;;;;;;;58.72;28.77;;;;;;;;;;1430268;41;20425;-79
2021/06/29 04:47:01;;;;;;;47.22;27.88;;;;;;;;;;1433995;41;21036;-79
2021/06/29 04:48:03;;;;;;;52.22;28.63;;;;;;;;;;1433937;41;20439;-80
2021/06/29 04:49:05;;;;;;;55.05;27.95;;;;;;;;;;1434117;41;20523;-80
2021/06/29 04:50:07;;;;;;;55.17;28.23;;;;;;;;;;1433934;41;20581;-79
2021/06/29 04:51:09;;;;;;;55.85;28.30;;;;;;;;;;1432592;41;20456;-80
2021/06/29 04:52:10;;;;;;;59.70;31.90;;;;;;;;;;1433798;41;20413;-79
2021/06/29 04:53:12;;;;;;;54.35;28.35;;;;;;;;;;1433343;41;20497;-80
2021/06/29 04:54:13;;;;;;;49.53;28.65;;;;;;;;;;1433820;41;20433;-80
2021/06/29 04:55:16;;;;;;;52.55;27.77;;;;;;;;;;1432664;41;20436;-80
2021/06/29 04:56:18;;;;;;;48.90;27.63;;;;;;;;;;1433562;41;20469;-79
2021/06/29 04:57:19;;;;;;;49.28;28.95;;;;;;;;;;1434355;41;21128;-80
2021/06/29 04:58:21;;;;;;;45.50;27.15;;;;;;;;;;1434295;41;20572;-80
2021/06/29 04:59:22;;;;;;;50.63;28.20;;;;;;;;;;1433408;41;20505;-80
2021/06/29 05:00:24;;;;;;;48.53;27.77;;;;;;;;;;1433633;41;20498;-80
2021/06/29 05:01:26;;;;;;;53.42;27.83;;;;;;;;;;1434332;41;20428;-79
2021/06/29 05:02:28;;;;;;;45.63;26.67;;;;;;;;;;1434183;41;20428;-80
2021/06/29 05:03:30;;;;;;;43.97;25.83;;;;;;;;;;1433616;41;20920;-80
2021/06/29 05:04:31;;;;;;;48.80;26.10;;;;;;;;;;1434008;41;20550;-80
2021/06/29 05:05:33;;;;;;;42.78;26.13;;;;;;;;;;1434337;41;20460;-80
2021/06/29 05:06:35;;;;;;;42.08;25.38;;;;;;;;;;1433769;41;21131;-80
2021/06/29 05:07:40;;;;;;;46.22;26.10;;;;;;;;;;1435538;41;20581;-80
2021/06/29 05:08:42;;;;;;;41.45;26.17;;;;;;;;;;1438655;41;20467;-80
2021/06/29 05:09:44;;;;;;;39.22;25.15;;;;;;;;;;1437825;41;20481;-81
2021/06/29 05:10:45;;;;;;;44.63;25.20;;;;;;;;;;1429595;41;20541;-80
2021/06/29 05:11:47;;;;;;;42.65;26.10;;;;;;;;;;1430285;41;20837;-80
2021/06/29 05:12:49;;;;;;;41.50;24.20;;;;;;;;;;1433426;41;20851;-80
2021/06/29 05:13:50;;;;;;;44.35;24.70;;;;;;;;;;1433409;41;20429;-80
2021/06/29 05:14:52;;;;;;;43.47;24.90;;;;;;;;;;1437899;41;20474;-80
2021/06/29 05:15:54;;;;;;;45.00;25.58;;;;;;;;;;1438774;41;20490;-80
2021/06/29 05:16:56;;;;;;;40.20;26.15;;;;;;;;;;1438514;41;20474;-80
2021/06/29 05:17:57;;;;;;;40.75;24.92;;;;;;;;;;1437919;41;20813;-80
2021/06/29 05:18:59;;;;;;;43.10;25.85;;;;;;;;;;1432949;41;20440;-80
2021/06/29 05:20:01;;;;;;;44.08;26.13;;;;;;;;;;1433578;41;20574;-80
2021/06/29 05:21:04;;;;;;;50.75;26.35;;;;;;;;;;1437486;41;20423;-80
2021/06/29 05:22:06;;;;;;;39.40;25.23;;;;;;;;;;1437594;41;20528;-80
2021/06/29 05:23:07;;;;;;;41.28;25.83;;;;;;;;;;1437232;41;20419;-80
2021/06/29 05:24:09;;;;;;;40.15;24.95;;;;;;;;;;1436858;41;20415;-80
2021/06/29 05:25:11;;;;;;;37.67;24.58;;;;;;;;;;1429383;41;20547;-80
2021/06/29 05:26:12;;;;;;;40.40;25.47;;;;;;;;;;1429777;41;20889;-80
2021/06/29 05:27:14;;;;;;;39.58;24.50;;;;;;;;;;1433288;41;20460;-80
2021/06/29 05:28:20;;;;;;;37.63;23.92;;;;;;;;;;1433937;41;20719;-80
2021/06/29 05:29:22;;;;;;;38.30;24.02;;;;;;;;;;1436910;41;20471;-80
2021/06/29 05:30:23;;;;;;;35.85;23.50;;;;;;;;;;1437484;41;21023;-80
2021/06/29 05:31:25;;;;;;;39.63;24.00;;;;;;;;;;1440214;41;20873;-80
2021/06/29 05:32:26;;;;;;;39.45;25.17;;;;;;;;;;1438344;41;21034;-80
2021/06/29 05:33:28;;;;;;;40.78;24.65;;;;;;;;;;1433307;41;20456;-80
2021/06/29 05:34:30;;;;;;;35.80;24.05;;;;;;;;;;1433508;41;20962;-82
2021/06/29 05:35:31;;;;;;;40.47;24.33;;;;;;;;;;1433664;41;20846;-80
2021/06/29 05:36:33;;;;;;;40.92;25.25;;;;;;;;;;1433503;41;20451;-80
2021/06/29 05:37:35;;;;;;;36.63;24.73;;;;;;;;;;1433755;41;20436;-80
2021/06/29 05:38:37;;;;;;;37.42;23.98;;;;;;;;;;1437991;41;20443;-80
2021/06/29 05:39:39;;;;;;;37.83;24.02;;;;;;;;;;1433240;41;20528;-81
2021/06/29 05:40:40;;;;;;;39.17;24.50;;;;;;;;;;1433466;41;20705;-80
2021/06/29 05:41:42;;;;;;;38.85;23.63;;;;;;;;;;1438010;41;20431;-80
2021/06/29 05:42:44;;;;;;;31.00;21.03;;;;;;;;;;1437535;41;21331;-80
2021/06/29 05:43:45;;;;;;;31.58;22.02;;;;;;;;;;1432970;41;20496;-81
2021/06/29 05:44:47;;;;;;;28.75;21.23;;;;;;;;;;1433590;41;20712;-80
2021/06/29 05:45:49;;;;;;;36.45;22.77;;;;;;;;;;1437262;41;20811;-80
2021/06/29 05:46:52;;;;;;;37.53;22.58;;;;;;;;;;1437371;41;20435;-80
2021/06/29 05:47:55;;;;;;;31.80;22.67;;;;;;;;;;1437757;41;20803;-80
2021/06/29 05:48:56;;;;;;;36.58;22.75;;;;;;;;;;1437763;41;21128;-81
2021/06/29 05:49:58;;;;;;;32.15;22.48;;;;;;;;;;1437710;41;20520;-80
2021/06/29 05:51:02;;;;;;;32.72;22.65;;;;;;;;;;1433564;41;20432;-79
2021/06/29 05:52:04;;;;;;;36.17;22.58;;;;;;;;;;1433065;41;20488;-80
2021/06/29 05:53:05;;;;;;;35.25;22.25;;;;;;;;;;1432926;41;20463;-80
2021/06/29 05:54:07;;;;;;;33.55;22.15;;;;;;;;;;1435557;41;20739;-79
2021/06/29 05:55:09;;;;;;;28.92;21.05;;;;;;;;;;1433554;41;20456;-80
2021/06/29 05:56:12;;;;;;;30.38;22.33;;;;;;;;;;1435646;41;20454;-80
2021/06/29 05:57:14;;;;;;;33.90;21.23;;;;;;;;;;1438005;41;20681;-80
2021/06/29 05:58:16;;;;;;;30.80;21.83;;;;;;;;;;1433351;41;20445;-80
2021/06/29 05:59:18;;;;;;;30.75;22.00;;;;;;;;;;1433444;41;20488;-80
2021/06/29 06:00:20;;;;;;;33.42;21.60;;;;;;;;;;1438057;41;20431;-79
2021/06/29 06:01:22;;;;;;;34.88;21.90;;;;;;;;;;1433453;41;20480;-80
2021/06/29 06:02:43;;;;;;;34.58;21.52;;;;;;;;;;1434884;41;20503;-80
2021/06/29 06:03:45;;;;;;;34.60;20.90;;;;;;;;;;1437537;41;20427;-79
2021/06/29 06:04:46;;;;;;;32.60;20.87;;;;;;;;;;1433383;41;20582;-80